Time;durP1;ratioP1;P1;durP2;ratioP2;P2;SDS_P1;SDS_P2;PMS_P1;PMS_P2;Temp;Humidity;BMP_temperature;BMP_pressure;BME280_temperature;BME280_humidity;BME280_pressure;Samples;Min_cycle;Max_cycle;Signal;HPM_P1;HPM_P2
2023/05/10 00:00:47;;;;;;;15.50;9.95;;;;;;;;;;5051760;28;20029;-71
2023/05/10 00:03:13;;;;;;;17.73;10.82;;;;;;;;;;5051333;28;20037;-70
2023/05/10 00:05:38;;;;;;;15.68;9.50;;;;;;;;;;5051354;28;20101;-71
2023/05/10 00:08:04;;;;;;;12.48;9.43;;;;;;;;;;5041373;28;20676;-71
2023/05/10 00:10:30;;;;;;;13.32;9.60;;;;;;;;;;5051437;28;20025;-71
2023/05/10 00:12:56;;;;;;;15.27;9.23;;;;;;;;;;5051867;28;20564;-71
2023/05/10 00:15:22;;;;;;;14.25;10.07;;;;;;;;;;5051147;28;20052;-70
2023/05/10 00:17:47;;;;;;;13.90;9.18;;;;;;;;;;5050490;28;20047;-71
2023/05/10 00:20:13;;;;;;;11.38;8.68;;;;;;;;;;5051162;28;20025;-71
2023/05/10 00:22:39;;;;;;;13.85;9.45;;;;;;;;;;5051100;28;20041;-70
2023/05/10 00:25:05;;;;;;;13.23;9.27;;;;;;;;;;5048864;28;20025;-70
2023/05/10 00:27:31;;;;;;;12.80;8.65;;;;;;;;;;5066305;28;20036;-71
2023/05/10 00:29:57;;;;;;;12.70;8.68;;;;;;;;;;5049603;28;20409;-70
2023/05/10 00:32:23;;;;;;;13.38;9.70;;;;;;;;;;5049853;28;20036;-70
2023/05/10 00:34:48;;;;;;;13.68;9.45;;;;;;;;;;5049788;28;20025;-70
2023/05/10 00:37:15;;;;;;;13.30;10.02;;;;;;;;;;5033263;28;20079;-71
2023/05/10 00:39:41;;;;;;;14.95;10.93;;;;;;;;;;5049348;28;20495;-71
2023/05/10 00:42:07;;;;;;;13.80;9.63;;;;;;;;;;5050759;28;20032;-70
2023/05/10 00:44:32;;;;;;;12.88;9.70;;;;;;;;;;5046804;28;20029;-71
2023/05/10 00:46:59;;;;;;;12.68;9.02;;;;;;;;;;5049398;28;20043;-70
2023/05/10 00:49:25;;;;;;;11.32;8.25;;;;;;;;;;5050490;28;20572;-71
2023/05/10 00:51:51;;;;;;;11.43;8.20;;;;;;;;;;5024924;28;20131;-71
2023/05/10 00:54:17;;;;;;;12.82;8.35;;;;;;;;;;5050568;28;20398;-71
2023/05/10 00:56:48;;;;;;;12.02;9.52;;;;;;;;;;5041824;28;20400;-71
2023/05/10 00:59:17;;;;;;;12.57;9.25;;;;;;;;;;5057070;28;20039;-71
2023/05/10 01:01:47;;;;;;;13.77;9.25;;;;;;;;;;5037329;28;20037;-71
2023/05/10 01:04:14;;;;;;;13.15;8.70;;;;;;;;;;5029805;28;20029;-71
2023/05/10 01:06:41;;;;;;;11.00;8.73;;;;;;;;;;5038605;28;20029;-71
2023/05/10 01:09:07;;;;;;;11.40;9.10;;;;;;;;;;5049067;28;20083;-72
2023/05/10 01:11:39;;;;;;;12.70;8.80;;;;;;;;;;5068528;28;20029;-71
2023/05/10 01:14:06;;;;;;;12.70;7.60;;;;;;;;;;5055008;28;20366;-71
2023/05/10 01:16:36;;;;;;;11.20;8.50;;;;;;;;;;5054722;28;20037;-71
2023/05/10 01:19:03;;;;;;;11.55;7.70;;;;;;;;;;5054512;28;20087;-71
2023/05/10 01:21:32;;;;;;;9.20;7.78;;;;;;;;;;5054653;28;20417;-71
2023/05/10 01:24:19;;;;;;;11.43;7.93;;;;;;;;;;5041073;28;20036;-71
2023/05/10 01:26:54;;;;;;;14.68;7.75;;;;;;;;;;5032122;28;20490;-71
2023/05/10 01:30:05;;;;;;;9.18;7.38;;;;;;;;;;5032960;28;20045;-71
2023/05/10 01:32:53;;;;;;;11.45;7.35;;;;;;;;;;5033302;28;20498;-71
2023/05/10 01:35:42;;;;;;;7.97;6.10;;;;;;;;;;5034997;28;20402;-71
2023/05/10 01:38:22;;;;;;;10.95;5.45;;;;;;;;;;5033431;28;20040;-71
2023/05/10 01:41:06;;;;;;;7.47;5.50;;;;;;;;;;5033643;28;20065;-71
2023/05/10 01:43:42;;;;;;;8.35;5.53;;;;;;;;;;5033443;28;20072;-72
2023/05/10 01:46:14;;;;;;;8.85;5.47;;;;;;;;;;5033600;28;20117;-71
2023/05/10 01:48:47;;;;;;;10.13;5.55;;;;;;;;;;5033469;28;20095;-71
2023/05/10 01:51:23;;;;;;;9.50;5.38;;;;;;;;;;5034931;28;20044;-71
2023/05/10 01:53:54;;;;;;;7.40;5.30;;;;;;;;;;5051246;28;20465;-74
2023/05/10 01:56:24;;;;;;;10.15;5.20;;;;;;;;;;5053200;28;20064;-72
2023/05/10 01:58:52;;;;;;;9.60;5.55;;;;;;;;;;5052653;28;20043;-72
2023/05/10 02:01:20;;;;;;;7.65;4.97;;;;;;;;;;5054018;28;20024;-70
2023/05/10 02:03:48;;;;;;;10.30;5.00;;;;;;;;;;5055137;28;20029;-71
2023/05/10 02:06:16;;;;;;;6.70;4.70;;;;;;;;;;5047468;28;20021;-70
2023/05/10 02:08:45;;;;;;;8.15;5.03;;;;;;;;;;5052171;28;20388;-70
2023/05/10 02:11:13;;;;;;;7.90;5.03;;;;;;;;;;5047365;28;20090;-71
2023/05/10 02:13:39;;;;;;;7.95;4.45;;;;;;;;;;5051988;28;20064;-71
2023/05/10 02:16:07;;;;;;;10.68;5.03;;;;;;;;;;5041855;28;20499;-71
2023/05/10 02:18:34;;;;;;;7.57;4.63;;;;;;;;;;5041790;28;20039;-70
2023/05/10 02:21:02;;;;;;;8.55;4.78;;;;;;;;;;5048669;28;20116;-72
2023/05/10 02:23:29;;;;;;;10.07;5.15;;;;;;;;;;5051615;28;20049;-72
2023/05/10 02:25:56;;;;;;;8.20;4.95;;;;;;;;;;5050717;28;20498;-72
2023/05/10 02:28:25;;;;;;;8.27;4.30;;;;;;;;;;5035916;28;20076;-71
2023/05/10 02:30:52;;;;;;;9.43;4.95;;;;;;;;;;5035112;28;20029;-71
2023/05/10 02:33:21;;;;;;;9.77;5.22;;;;;;;;;;5053546;28;20072;-72
2023/05/10 02:35:47;;;;;;;10.48;4.43;;;;;;;;;;5053099;28;20082;-72
2023/05/10 02:38:15;;;;;;;9.95;5.20;;;;;;;;;;5053248;28;20039;-72
2023/05/10 02:40:42;;;;;;;13.07;5.20;;;;;;;;;;5041782;28;20052;-72
2023/05/10 02:43:13;;;;;;;11.27;5.13;;;;;;;;;;5051869;28;20064;-71
2023/05/10 02:45:40;;;;;;;9.70;4.90;;;;;;;;;;5043629;28;20092;-72
2023/05/10 02:48:06;;;;;;;10.77;5.07;;;;;;;;;;5037965;28;20026;-72
2023/05/10 02:50:33;;;;;;;11.15;5.13;;;;;;;;;;5031962;28;20053;-71
2023/05/10 02:53:10;;;;;;;10.90;5.25;;;;;;;;;;5031799;28;20033;-72
2023/05/10 02:55:38;;;;;;;11.82;4.68;;;;;;;;;;5031806;28;20144;-72
2023/05/10 02:58:04;;;;;;;10.52;5.20;;;;;;;;;;5031464;28;20025;-72
2023/05/10 03:00:30;;;;;;;12.68;5.25;;;;;;;;;;5036851;28;20121;-71
2023/05/10 03:02:56;;;;;;;9.90;4.88;;;;;;;;;;5046397;28;20363;-71
2023/05/10 03:05:23;;;;;;;9.57;4.50;;;;;;;;;;5051265;28;20681;-70
2023/05/10 03:07:49;;;;;;;12.70;5.03;;;;;;;;;;5052040;28;20387;-72
2023/05/10 03:10:15;;;;;;;6.90;4.82;;;;;;;;;;5051382;28;20047;-71
2023/05/10 03:13:12;;;;;;;10.88;5.20;;;;;;;;;;5049870;28;20113;-71
2023/05/10 03:16:01;;;;;;;9.07;4.82;;;;;;;;;;5031837;28;20402;-70
2023/05/10 03:18:32;;;;;;;10.48;4.90;;;;;;;;;;5034936;28;20041;-71
2023/05/10 03:21:02;;;;;;;9.10;4.82;;;;;;;;;;5026507;28;20398;-72
2023/05/10 03:24:05;;;;;;;11.20;4.72;;;;;;;;;;5034797;28;20480;-71
2023/05/10 03:26:32;;;;;;;11.48;5.15;;;;;;;;;;5056541;28;20040;-71
2023/05/10 03:29:07;;;;;;;7.97;4.72;;;;;;;;;;5047883;28;20379;-71
2023/05/10 03:31:33;;;;;;;13.35;5.43;;;;;;;;;;5039794;28;20044;-71
2023/05/10 03:33:59;;;;;;;7.35;4.63;;;;;;;;;;5044434;28;20021;-70
2023/05/10 03:36:26;;;;;;;10.63;5.18;;;;;;;;;;5040446;28;20051;-71
2023/05/10 03:38:52;;;;;;;9.35;5.07;;;;;;;;;;5058927;28;20108;-70
2023/05/10 03:41:20;;;;;;;11.73;5.47;;;;;;;;;;5050873;28;20032;-70
2023/05/10 03:43:46;;;;;;;9.15;4.82;;;;;;;;;;5048445;28;20079;-71
2023/05/10 03:46:14;;;;;;;8.48;5.35;;;;;;;;;;5046470;28;20032;-70
2023/05/10 03:48:39;;;;;;;11.52;4.82;;;;;;;;;;5031844;28;20033;-70
2023/05/10 03:51:06;;;;;;;9.70;4.75;;;;;;;;;;5048099;28;20033;-70
2023/05/10 03:53:31;;;;;;;13.35;5.57;;;;;;;;;;5050009;28;20032;-71
2023/05/10 03:55:57;;;;;;;8.95;4.68;;;;;;;;;;5043110;28;20071;-71
2023/05/10 03:58:23;;;;;;;13.90;5.28;;;;;;;;;;5041574;28;20020;-71
2023/05/10 04:00:51;;;;;;;11.05;5.00;;;;;;;;;;5049356;28;20074;-70
2023/05/10 04:03:17;;;;;;;12.18;5.55;;;;;;;;;;5046800;28;20025;-71
2023/05/10 04:05:43;;;;;;;9.82;4.80;;;;;;;;;;5049143;28;20112;-70
2023/05/10 04:08:09;;;;;;;9.40;4.88;;;;;;;;;;5039283;28;20028;-71
2023/05/10 04:10:38;;;;;;;10.75;4.35;;;;;;;;;;5047494;28;20037;-75
2023/05/10 04:13:03;;;;;;;9.07;4.22;;;;;;;;;;5050491;28;20090;-70
2023/05/10 04:15:29;;;;;;;6.63;4.07;;;;;;;;;;5050234;28;20060;-70
2023/05/10 04:17:57;;;;;;;6.88;4.28;;;;;;;;;;5049581;28;20021;-70
2023/05/10 04:20:22;;;;;;;9.30;4.10;;;;;;;;;;5040397;28;20387;-71
2023/05/10 04:22:48;;;;;;;9.63;4.25;;;;;;;;;;5047756;28;20025;-71
2023/05/10 04:25:14;;;;;;;8.93;4.18;;;;;;;;;;5051674;28;20035;-72
2023/05/10 04:27:39;;;;;;;10.43;4.45;;;;;;;;;;5049396;28;20021;-72
2023/05/10 04:30:06;;;;;;;9.93;4.28;;;;;;;;;;5050644;28;20425;-71
2023/05/10 04:32:32;;;;;;;8.00;4.78;;;;;;;;;;5048967;28;20033;-72
2023/05/10 04:34:58;;;;;;;9.55;4.60;;;;;;;;;;5043425;28;20032;-71
2023/05/10 04:37:23;;;;;;;10.98;4.63;;;;;;;;;;5049038;28;20024;-71
2023/05/10 04:39:50;;;;;;;8.88;4.68;;;;;;;;;;5047507;28;20471;-69
2023/05/10 04:42:15;;;;;;;9.73;4.60;;;;;;;;;;5045430;28;20032;-70
2023/05/10 04:44:41;;;;;;;5.40;4.13;;;;;;;;;;5049620;28;20512;-70
2023/05/10 04:47:06;;;;;;;10.23;4.40;;;;;;;;;;5053425;28;20382;-70
2023/05/10 04:49:32;;;;;;;10.68;4.75;;;;;;;;;;5061623;28;20047;-70
2023/05/10 04:51:58;;;;;;;8.82;4.22;;;;;;;;;;5054371;28;20020;-71
2023/05/10 04:54:24;;;;;;;10.52;4.80;;;;;;;;;;5054374;28;20058;-71
2023/05/10 04:56:49;;;;;;;12.13;4.93;;;;;;;;;;5051479;28;20097;-70
2023/05/10 04:59:15;;;;;;;9.27;4.38;;;;;;;;;;5048697;28;20037;-71
2023/05/10 05:01:41;;;;;;;11.52;4.75;;;;;;;;;;5046063;28;20142;-71
2023/05/10 05:04:06;;;;;;;10.05;4.32;;;;;;;;;;5048902;28;20040;-69
2023/05/10 05:06:32;;;;;;;10.68;4.15;;;;;;;;;;5050280;28;20032;-71
2023/05/10 05:08:58;;;;;;;8.77;4.57;;;;;;;;;;5053541;28;20047;-70
2023/05/10 05:11:25;;;;;;;7.28;4.55;;;;;;;;;;5050622;28;20031;-70
2023/05/10 05:13:51;;;;;;;13.05;5.13;;;;;;;;;;5053325;28;20052;-71
2023/05/10 05:16:16;;;;;;;11.60;4.43;;;;;;;;;;5054525;28;20021;-70
2023/05/10 05:18:42;;;;;;;9.75;4.88;;;;;;;;;;5045137;28;20100;-71
2023/05/10 05:21:18;;;;;;;8.90;4.53;;;;;;;;;;5053132;28;20490;-71
2023/05/10 05:23:44;;;;;;;8.60;4.63;;;;;;;;;;5045804;28;20399;-71
2023/05/10 05:26:10;;;;;;;7.65;4.68;;;;;;;;;;5048365;28;20420;-71
2023/05/10 05:28:37;;;;;;;6.80;3.97;;;;;;;;;;5051464;28;20048;-71
2023/05/10 05:31:05;;;;;;;10.60;4.75;;;;;;;;;;5054124;28;20052;-70
2023/05/10 05:33:31;;;;;;;5.53;3.90;;;;;;;;;;5054080;28;20033;-70
2023/05/10 05:35:57;;;;;;;14.10;4.35;;;;;;;;;;5052836;28;20031;-70
2023/05/10 05:38:23;;;;;;;8.40;3.35;;;;;;;;;;5052449;28;20131;-71
2023/05/10 05:40:49;;;;;;;8.15;3.25;;;;;;;;;;5053738;28;20115;-71
2023/05/10 05:43:15;;;;;;;8.95;3.35;;;;;;;;;;5054383;28;20044;-71
2023/05/10 05:45:40;;;;;;;9.13;3.10;;;;;;;;;;5051971;28;20106;-70
2023/05/10 05:48:06;;;;;;;9.93;3.20;;;;;;;;;;5053322;28;20033;-72
2023/05/10 05:50:32;;;;;;;8.27;3.10;;;;;;;;;;5053645;28;20029;-70
2023/05/10 05:52:58;;;;;;;8.32;3.20;;;;;;;;;;5053886;28;20036;-71
2023/05/10 05:55:25;;;;;;;12.70;3.67;;;;;;;;;;5052950;28;20051;-71
2023/05/10 05:57:51;;;;;;;11.43;4.07;;;;;;;;;;5051683;28;20033;-70
2023/05/10 06:00:17;;;;;;;9.60;3.33;;;;;;;;;;5052428;28;20111;-71
2023/05/10 06:02:44;;;;;;;10.13;3.63;;;;;;;;;;5051885;28;20028;-70
2023/05/10 06:05:10;;;;;;;4.70;3.05;;;;;;;;;;5047626;28;20052;-71
2023/05/10 06:07:36;;;;;;;8.02;3.83;;;;;;;;;;5049067;28;20367;-72
2023/05/10 06:10:02;;;;;;;6.78;2.97;;;;;;;;;;5052080;28;20115;-70
2023/05/10 06:12:28;;;;;;;5.75;3.45;;;;;;;;;;5051768;28;20501;-72
2023/05/10 06:14:54;;;;;;;7.68;2.78;;;;;;;;;;5051976;28;20029;-71
2023/05/10 06:17:19;;;;;;;7.28;3.72;;;;;;;;;;5050284;28;20025;-70
2023/05/10 06:19:45;;;;;;;9.43;3.80;;;;;;;;;;5051623;28;20028;-71
2023/05/10 06:22:11;;;;;;;9.35;3.00;;;;;;;;;;5050515;28;20032;-72
2023/05/10 06:24:36;;;;;;;10.57;2.80;;;;;;;;;;5052092;28;20105;-72
2023/05/10 06:27:03;;;;;;;9.88;2.60;;;;;;;;;;5046501;28;20179;-73
2023/05/10 06:29:29;;;;;;;7.25;2.42;;;;;;;;;;5046876;28;20048;-70
2023/05/10 06:31:55;;;;;;;8.77;2.60;;;;;;;;;;5031834;28;20029;-72
2023/05/10 06:34:20;;;;;;;7.28;3.17;;;;;;;;;;5047153;28;20044;-70
2023/05/10 06:36:46;;;;;;;5.03;2.35;;;;;;;;;;5032105;28;20155;-70
2023/05/10 06:39:12;;;;;;;16.58;3.67;;;;;;;;;;5038442;28;20048;-73
2023/05/10 06:41:37;;;;;;;6.75;2.30;;;;;;;;;;5051443;28;20047;-70
2023/05/10 06:44:03;;;;;;;8.45;2.95;;;;;;;;;;5051729;28;20033;-72
2023/05/10 06:46:29;;;;;;;8.50;2.80;;;;;;;;;;5051429;28;20376;-72
2023/05/10 06:48:55;;;;;;;3.65;2.03;;;;;;;;;;5050143;28;20124;-71
2023/05/10 06:51:21;;;;;;;6.35;2.47;;;;;;;;;;5051063;28;20044;-70
2023/05/10 06:53:47;;;;;;;14.98;2.70;;;;;;;;;;4997927;28;1522674;-70
2023/05/10 06:56:12;;;;;;;16.55;2.50;;;;;;;;;;5052022;28;20062;-69
2023/05/10 06:58:38;;;;;;;9.68;2.83;;;;;;;;;;5051687;28;20037;-70
2023/05/10 07:01:05;;;;;;;6.55;2.30;;;;;;;;;;5051648;28;20142;-72
2023/05/10 07:03:31;;;;;;;4.72;2.20;;;;;;;;;;5051945;28;20028;-71
2023/05/10 07:06:04;;;;;;;5.75;2.25;;;;;;;;;;5051932;28;20119;-72
2023/05/10 07:08:32;;;;;;;4.93;1.88;;;;;;;;;;5050719;28;20098;-72
2023/05/10 07:11:07;;;;;;;6.78;2.25;;;;;;;;;;5066821;28;20107;-71
2023/05/10 07:13:33;;;;;;;7.53;2.60;;;;;;;;;;5051619;28;20063;-71
2023/05/10 07:16:00;;;;;;;6.00;1.77;;;;;;;;;;5051838;28;20025;-72
2023/05/10 07:18:26;;;;;;;9.38;2.05;;;;;;;;;;5051441;28;20037;-71
2023/05/10 07:20:52;;;;;;;6.00;1.67;;;;;;;;;;5051818;28;20017;-70
2023/05/10 07:23:18;;;;;;;4.35;1.73;;;;;;;;;;5051737;28;20467;-72
2023/05/10 07:25:48;;;;;;;4.15;1.83;;;;;;;;;;5051685;28;20044;-70
2023/05/10 07:28:14;;;;;;;5.22;1.90;;;;;;;;;;5050865;28;20037;-71
2023/05/10 07:30:41;;;;;;;8.65;2.05;;;;;;;;;;5051333;28;20028;-71
2023/05/10 07:33:08;;;;;;;5.97;2.20;;;;;;;;;;5067358;28;20114;-72
2023/05/10 07:35:35;;;;;;;8.68;2.25;;;;;;;;;;5051226;28;20024;-73
2023/05/10 07:38:01;;;;;;;3.30;1.40;;;;;;;;;;5049912;28;20029;-73
2023/05/10 07:40:26;;;;;;;5.47;2.13;;;;;;;;;;5051512;28;20035;-71
2023/05/10 07:42:52;;;;;;;2.78;1.58;;;;;;;;;;5049656;28;20045;-73
2023/05/10 07:45:18;;;;;;;5.93;2.13;;;;;;;;;;5051393;28;20017;-72
2023/05/10 07:47:43;;;;;;;4.05;1.58;;;;;;;;;;5050981;28;20093;-72
2023/05/10 07:50:09;;;;;;;4.30;1.63;;;;;;;;;;5051204;28;20032;-73
2023/05/10 07:52:35;;;;;;;6.13;2.00;;;;;;;;;;5050662;28;20036;-72
2023/05/10 07:55:01;;;;;;;5.15;2.05;;;;;;;;;;5049484;28;20025;-70
2023/05/10 07:57:26;;;;;;;3.33;1.60;;;;;;;;;;5049969;28;20020;-72
2023/05/10 07:59:52;;;;;;;5.43;1.85;;;;;;;;;;5050067;28;20024;-71
2023/05/10 08:02:18;;;;;;;5.95;2.30;;;;;;;;;;5050508;28;20532;-73
2023/05/10 08:04:43;;;;;;;5.22;2.10;;;;;;;;;;5050518;28;20033;-72
2023/05/10 08:07:10;;;;;;;5.97;1.98;;;;;;;;;;5050459;28;20482;-73
2023/05/10 08:09:36;;;;;;;5.68;1.92;;;;;;;;;;5049403;28;20056;-71
2023/05/10 08:12:02;;;;;;;4.65;1.75;;;;;;;;;;5050343;28;20041;-72
2023/05/10 08:14:28;;;;;;;6.40;2.88;;;;;;;;;;5050746;28;20021;-74
2023/05/10 08:16:55;;;;;;;3.88;1.90;;;;;;;;;;5042516;28;20047;-72
2023/05/10 08:19:21;;;;;;;5.35;1.60;;;;;;;;;;5049670;28;20108;-72
2023/05/10 08:21:47;;;;;;;6.50;1.75;;;;;;;;;;5050103;28;20398;-73
2023/05/10 08:24:12;;;;;;;3.70;1.60;;;;;;;;;;5049900;28;20035;-71
2023/05/10 08:26:38;;;;;;;7.75;1.75;;;;;;;;;;5049038;28;20494;-71
2023/05/10 08:29:04;;;;;;;3.55;1.63;;;;;;;;;;5059288;28;20067;-71
2023/05/10 08:31:30;;;;;;;6.45;1.70;;;;;;;;;;5050460;28;20452;-72
2023/05/10 08:33:56;;;;;;;4.25;1.50;;;;;;;;;;5060842;28;20025;-73
2023/05/10 08:36:23;;;;;;;4.18;1.88;;;;;;;;;;5045254;28;20447;-72
2023/05/10 08:38:53;;;;;;;4.90;1.90;;;;;;;;;;5049845;28;20418;-71
2023/05/10 08:41:24;;;;;;;5.05;1.73;;;;;;;;;;5049901;28;20525;-71
2023/05/10 08:43:51;;;;;;;5.45;1.80;;;;;;;;;;5049989;28;20041;-71
2023/05/10 08:46:19;;;;;;;2.75;1.58;;;;;;;;;;5057019;28;20387;-73
2023/05/10 08:48:47;;;;;;;5.30;1.50;;;;;;;;;;5047921;28;20434;-72
2023/05/10 08:51:21;;;;;;;6.32;1.92;;;;;;;;;;5050219;28;20052;-71
2023/05/10 08:53:47;;;;;;;7.68;2.00;;;;;;;;;;5047538;28;20115;-72
2023/05/10 08:56:16;;;;;;;6.82;2.58;;;;;;;;;;5038561;28;20033;-72
2023/05/10 08:58:42;;;;;;;2.95;1.88;;;;;;;;;;5041722;28;20108;-72
2023/05/10 09:01:08;;;;;;;5.50;1.77;;;;;;;;;;5042294;28;20100;-72
2023/05/10 09:03:38;;;;;;;5.60;1.90;;;;;;;;;;5047412;28;20490;-72
2023/05/10 09:06:04;;;;;;;5.90;2.20;;;;;;;;;;5042194;28;20017;-72
2023/05/10 09:08:31;;;;;;;7.80;2.17;;;;;;;;;;5040350;28;20045;-70
2023/05/10 09:10:57;;;;;;;7.80;2.35;;;;;;;;;;5045125;28;20106;-70
2023/05/10 09:13:24;;;;;;;4.63;1.90;;;;;;;;;;5044537;28;20104;-69
2023/05/10 09:15:51;;;;;;;8.70;2.05;;;;;;;;;;5052534;28;20100;-70
2023/05/10 09:18:17;;;;;;;3.45;1.45;;;;;;;;;;5044130;28;20067;-71
2023/05/10 09:20:43;;;;;;;4.80;1.70;;;;;;;;;;5042068;28;20025;-70
2023/05/10 09:23:09;;;;;;;5.40;1.90;;;;;;;;;;5045877;28;20029;-71
2023/05/10 09:25:34;;;;;;;4.68;2.00;;;;;;;;;;5047423;28;20602;-71
2023/05/10 09:28:00;;;;;;;6.32;1.70;;;;;;;;;;5041287;28;20536;-71
2023/05/10 09:30:28;;;;;;;5.03;1.80;;;;;;;;;;5040464;28;20033;-70
2023/05/10 09:32:55;;;;;;;3.65;1.90;;;;;;;;;;5044200;28;20033;-71
2023/05/10 09:35:23;;;;;;;7.22;1.83;;;;;;;;;;5047820;28;20024;-73
2023/05/10 09:37:51;;;;;;;6.07;2.20;;;;;;;;;;5045983;28;20702;-72
2023/05/10 09:40:20;;;;;;;5.40;2.20;;;;;;;;;;5049580;28;20071;-71
2023/05/10 09:43:07;;;;;;;5.78;1.85;;;;;;;;;;5052022;28;20102;-72
2023/05/10 09:45:34;;;;;;;6.03;2.33;;;;;;;;;;5040548;28;20144;-71
2023/05/10 09:48:02;;;;;;;6.55;2.55;;;;;;;;;;5046121;28;20092;-71
2023/05/10 09:50:29;;;;;;;6.63;2.40;;;;;;;;;;5049114;28;20368;-69
2023/05/10 09:53:00;;;;;;;7.15;2.50;;;;;;;;;;5043148;28;20399;-70
2023/05/10 09:55:37;;;;;;;4.03;1.75;;;;;;;;;;5042859;28;20032;-70
2023/05/10 09:58:04;;;;;;;6.90;1.98;;;;;;;;;;5048945;28;20112;-70
2023/05/10 10:00:35;;;;;;;8.80;2.33;;;;;;;;;;5050353;28;20020;-71
2023/05/10 10:03:03;;;;;;;6.47;2.38;;;;;;;;;;5049429;28;20029;-69
2023/05/10 10:05:35;;;;;;;7.18;2.75;;;;;;;;;;5047253;28;20100;-69
2023/05/10 10:08:06;;;;;;;5.93;2.03;;;;;;;;;;5043999;28;20429;-70
2023/05/10 10:10:33;;;;;;;10.20;1.80;;;;;;;;;;5050705;28;20044;-71
2023/05/10 10:13:01;;;;;;;4.50;1.83;;;;;;;;;;5044114;28;20046;-69
2023/05/10 10:15:27;;;;;;;8.07;2.35;;;;;;;;;;5044650;28;20033;-70
2023/05/10 10:17:53;;;;;;;5.63;2.10;;;;;;;;;;5047758;28;20106;-71
2023/05/10 10:20:22;;;;;;;6.05;2.13;;;;;;;;;;5043715;28;20067;-70
2023/05/10 10:22:48;;;;;;;2.70;1.65;;;;;;;;;;5047323;28;20067;-70
2023/05/10 10:25:17;;;;;;;3.72;2.15;;;;;;;;;;5044468;28;20486;-71
2023/05/10 10:28:08;;;;;;;3.78;1.80;;;;;;;;;;5041541;28;20052;-71
2023/05/10 10:30:42;;;;;;;5.10;1.90;;;;;;;;;;5038247;28;20120;-70
2023/05/10 10:33:16;;;;;;;;;;;;;;;;;;5046596;28;20083;-70
2023/05/10 10:35:46;;;;;;;6.53;1.88;;;;;;;;;;5046177;28;19966;-70
2023/05/10 10:38:13;;;;;;;6.60;1.67;;;;;;;;;;5050961;28;20021;-70
2023/05/10 10:40:39;;;;;;;5.65;1.90;;;;;;;;;;5045288;28;20098;-70
2023/05/10 10:43:24;;;;;;;6.18;2.03;;;;;;;;;;5047537;28;20025;-70
2023/05/10 10:46:13;;;;;;;3.90;1.67;;;;;;;;;;5046201;28;20040;-70
2023/05/10 10:48:40;;;;;;;6.10;3.58;;;;;;;;;;5048414;28;20094;-70
2023/05/10 10:51:06;;;;;;;39.30;18.00;;;;;;;;;;5045480;28;20051;-71
2023/05/10 10:53:32;;;;;;;6.13;2.30;;;;;;;;;;5045828;28;20052;-71
2023/05/10 10:56:09;;;;;;;3.47;1.30;;;;;;;;;;5048466;28;20025;-70
2023/05/10 10:58:36;;;;;;;2.17;1.33;;;;;;;;;;5044918;28;20028;-69
2023/05/10 11:01:18;;;;;;;4.60;1.83;;;;;;;;;;5039694;28;20085;-70
2023/05/10 11:03:58;;;;;;;4.53;1.58;;;;;;;;;;5047191;28;20033;-69
2023/05/10 11:06:32;;;;;;;4.65;1.90;;;;;;;;;;5043144;28;20215;-70
2023/05/10 11:08:58;;;;;;;3.97;1.83;;;;;;;;;;5037183;28;20095;-69
2023/05/10 11:11:23;;;;;;;6.15;1.92;;;;;;;;;;5038872;28;20310;-70
2023/05/10 11:13:49;;;;;;;4.93;1.40;;;;;;;;;;5041741;28;20135;-70
2023/05/10 11:16:23;;;;;;;5.57;1.70;;;;;;;;;;5042939;28;20083;-69
2023/05/10 11:19:07;;;;;;;2.83;1.50;;;;;;;;;;5037883;28;20426;-71
2023/05/10 11:21:43;;;;;;;3.75;1.45;;;;;;;;;;5046870;28;20051;-71
2023/05/10 11:24:14;;;;;;;6.93;2.00;;;;;;;;;;5048841;28;20122;-72
2023/05/10 11:26:40;;;;;;;4.88;1.60;;;;;;;;;;5037726;28;20052;-70
2023/05/10 11:29:06;;;;;;;7.28;1.80;;;;;;;;;;5043468;28;20029;-71
2023/05/10 11:31:32;;;;;;;4.70;1.63;;;;;;;;;;5037327;28;20033;-70
2023/05/10 11:33:59;;;;;;;4.60;2.10;;;;;;;;;;5045884;28;20044;-71
2023/05/10 11:36:32;;;;;;;6.28;1.90;;;;;;;;;;5041798;28;20060;-71
2023/05/10 11:38:58;;;;;;;6.20;2.40;;;;;;;;;;5044766;28;20032;-73
2023/05/10 11:41:24;;;;;;;5.15;2.45;;;;;;;;;;5042082;28;20041;-73
2023/05/10 11:43:55;;;;;;;7.55;2.00;;;;;;;;;;5047901;28;20082;-72
2023/05/10 11:46:25;;;;;;;7.03;3.13;;;;;;;;;;5044908;28;20044;-73
2023/05/10 11:49:06;;;;;;;7.63;2.65;;;;;;;;;;5048271;28;20055;-73
2023/05/10 11:51:36;;;;;;;4.22;2.35;;;;;;;;;;5041997;28;20051;-71
2023/05/10 11:54:06;;;;;;;8.52;3.42;;;;;;;;;;5048724;28;20037;-71
2023/05/10 11:56:35;;;;;;;4.93;2.50;;;;;;;;;;5044426;28;20121;-70
2023/05/10 11:59:02;;;;;;;6.65;2.63;;;;;;;;;;5048265;28;20021;-71
2023/05/10 12:01:29;;;;;;;8.43;2.70;;;;;;;;;;5050112;28;20025;-71
2023/05/10 12:03:59;;;;;;;10.90;2.60;;;;;;;;;;5049334;28;20029;-72
2023/05/10 12:06:28;;;;;;;7.45;2.92;;;;;;;;;;5049791;28;20788;-71
2023/05/10 12:08:53;;;;;;;8.13;2.70;;;;;;;;;;5049306;28;20082;-70
2023/05/10 12:11:21;;;;;;;8.73;3.30;;;;;;;;;;5049764;28;20440;-71
2023/05/10 12:13:47;;;;;;;9.88;3.40;;;;;;;;;;5032884;28;20503;-72
2023/05/10 12:16:18;;;;;;;6.50;3.03;;;;;;;;;;5045297;28;20037;-72
2023/05/10 12:18:45;;;;;;;7.75;3.08;;;;;;;;;;5049561;28;20053;-71
2023/05/10 12:21:11;;;;;;;7.72;3.20;;;;;;;;;;5049170;28;20025;-72
2023/05/10 12:23:41;;;;;;;11.27;3.38;;;;;;;;;;5049264;28;20052;-73
2023/05/10 12:26:10;;;;;;;4.38;2.90;;;;;;;;;;5039220;28;20024;-72
2023/05/10 12:28:36;;;;;;;9.02;3.08;;;;;;;;;;5047679;28;20041;-73
2023/05/10 12:31:03;;;;;;;7.55;3.60;;;;;;;;;;5047327;28;20107;-72
2023/05/10 12:33:42;;;;;;;8.80;3.03;;;;;;;;;;5047467;28;20060;-73
2023/05/10 12:36:10;;;;;;;6.85;4.30;;;;;;;;;;5049975;28;20037;-71
2023/05/10 12:38:38;;;;;;;5.90;2.85;;;;;;;;;;5049113;28;20107;-72
2023/05/10 12:41:07;;;;;;;5.47;2.05;;;;;;;;;;5049331;28;20027;-72
2023/05/10 12:43:33;;;;;;;4.15;2.10;;;;;;;;;;5062600;28;20035;-72
2023/05/10 12:46:05;;;;;;;4.13;1.85;;;;;;;;;;5046093;28;20037;-73
2023/05/10 12:48:31;;;;;;;7.00;3.00;;;;;;;;;;5046695;28;20039;-73
2023/05/10 12:50:58;;;;;;;6.97;3.10;;;;;;;;;;5049518;28;20048;-72
2023/05/10 12:53:25;;;;;;;5.80;2.95;;;;;;;;;;5050336;28;20071;-72
2023/05/10 12:55:51;;;;;;;6.72;2.85;;;;;;;;;;5049159;28;20025;-72
2023/05/10 12:58:20;;;;;;;6.45;2.92;;;;;;;;;;5045575;28;20441;-71
2023/05/10 13:00:46;;;;;;;6.70;2.90;;;;;;;;;;5049696;28;20394;-72
2023/05/10 13:03:12;;;;;;;4.47;2.90;;;;;;;;;;5049260;28;20028;-71
2023/05/10 13:05:39;;;;;;;8.18;3.95;;;;;;;;;;5048120;28;20459;-73
2023/05/10 13:08:05;;;;;;;8.27;3.60;;;;;;;;;;5052120;28;20048;-73
2023/05/10 13:10:33;;;;;;;6.50;3.20;;;;;;;;;;5051982;28;20044;-73
2023/05/10 13:12:59;;;;;;;9.70;3.45;;;;;;;;;;5053929;28;20037;-72
2023/05/10 13:15:25;;;;;;;9.52;2.92;;;;;;;;;;5054006;28;20505;-73
2023/05/10 13:17:53;;;;;;;11.60;3.10;;;;;;;;;;5054071;28;20039;-73
2023/05/10 13:20:18;;;;;;;11.00;4.88;;;;;;;;;;5052566;28;20032;-72
2023/05/10 13:22:44;;;;;;;12.60;3.78;;;;;;;;;;5053685;28;20247;-72
2023/05/10 13:25:11;;;;;;;8.63;2.75;;;;;;;;;;5051808;28;20016;-72
2023/05/10 13:27:37;;;;;;;7.60;3.30;;;;;;;;;;5051154;28;20033;-73
2023/05/10 13:30:03;;;;;;;5.13;2.80;;;;;;;;;;5053002;28;20479;-72
2023/05/10 13:32:31;;;;;;;7.82;3.15;;;;;;;;;;5047626;28;20032;-72
2023/05/10 13:34:56;;;;;;;8.95;3.05;;;;;;;;;;5047582;28;20402;-73
2023/05/10 13:37:22;;;;;;;8.93;3.17;;;;;;;;;;5075946;28;20040;-73
2023/05/10 13:39:48;;;;;;;6.13;3.13;;;;;;;;;;5045643;28;20024;-73
2023/05/10 13:42:14;;;;;;;4.20;2.83;;;;;;;;;;5045988;28;20498;-72
2023/05/10 13:44:39;;;;;;;10.77;3.25;;;;;;;;;;5048453;28;20118;-73
2023/05/10 13:47:06;;;;;;;7.40;3.05;;;;;;;;;;5049204;28;20112;-72
2023/05/10 13:49:31;;;;;;;10.55;3.42;;;;;;;;;;5047682;28;20025;-73
2023/05/10 13:51:57;;;;;;;5.82;3.35;;;;;;;;;;5046243;28;20134;-72
2023/05/10 13:54:24;;;;;;;5.43;2.88;;;;;;;;;;5049062;28;20039;-71
2023/05/10 13:56:49;;;;;;;9.23;3.13;;;;;;;;;;5051807;28;20148;-72
2023/05/10 13:59:15;;;;;;;9.05;3.88;;;;;;;;;;5041235;28;20513;-73
2023/05/10 14:01:42;;;;;;;11.40;3.80;;;;;;;;;;5047190;28;20095;-72
2023/05/10 14:04:10;;;;;;;6.47;3.10;;;;;;;;;;5046177;28;20100;-72
2023/05/10 14:06:36;;;;;;;7.47;3.60;;;;;;;;;;5037939;28;20033;-73
2023/05/10 14:09:02;;;;;;;12.20;4.70;;;;;;;;;;5049651;28;20025;-71
2023/05/10 14:11:29;;;;;;;6.72;3.58;;;;;;;;;;5052494;28;20029;-71
2023/05/10 14:13:55;;;;;;;13.45;4.28;;;;;;;;;;5052472;28;20481;-70
2023/05/10 14:16:21;;;;;;;9.57;4.25;;;;;;;;;;5050483;28;20041;-72
2023/05/10 14:18:47;;;;;;;12.77;4.45;;;;;;;;;;5050624;28;20028;-72
2023/05/10 14:21:13;;;;;;;8.88;3.83;;;;;;;;;;5052588;28;20410;-73
2023/05/10 14:23:39;;;;;;;8.90;3.83;;;;;;;;;;5052405;28;20025;-71
2023/05/10 14:26:06;;;;;;;12.63;4.47;;;;;;;;;;5049919;28;20065;-72
2023/05/10 14:28:31;;;;;;;11.50;4.53;;;;;;;;;;5047661;28;20035;-72
2023/05/10 14:30:57;;;;;;;9.48;4.07;;;;;;;;;;5050860;28;20049;-72
2023/05/10 14:33:23;;;;;;;9.30;4.35;;;;;;;;;;5054896;28;20467;-71
2023/05/10 14:35:49;;;;;;;8.88;4.25;;;;;;;;;;5048241;28;20482;-71
2023/05/10 14:38:14;;;;;;;9.18;4.13;;;;;;;;;;5051012;28;20086;-71
2023/05/10 14:40:40;;;;;;;9.63;4.25;;;;;;;;;;5043725;28;20359;-72
2023/05/10 14:43:06;;;;;;;7.00;4.10;;;;;;;;;;5048705;28;20028;-72